Airport details for: EETU (Estonia)

Metar

EETU 270050Z AUTO 22007KT 9999 NCD M00/M01 Q1009

General details

ICAO: EETU
IATA: TAY
Name (city): Tartu
Major:
Country: Estonia
vACC: VACC Estonia
Description:

Tartu Airport is the 2nd airport by the passenger flow, located near the Tartu–Võru highway.

Scenery links:
FS9 scenery: Download
FSX/P3D scenery: Download
XP scenery: Download
Elevation: 219 ft.
Transition altitude: 5000 ft.
MSA: 5900 ft.
Latitude: 58.3075
Longitude: 26.686945
EETU Charts
EETU Notams
EETU Online stations

Runways

Number Course Length Elevation Lat Lon ILS ILS freq ILS FAC GP
08 80° 5902ft / 1799 m 210ft 58.307186 26.671464 - - 3.0°
26 260° 5902ft / 1799 m 192ft 58.307631 26.702156 108.5 260° 3.0°